sensor_id;sensor_type;location;lat;lon;timestamp;P1;durP1;ratioP1;P2;durP2;ratioP2
27491;SDS011;14927;51.210;6.838;2023-12-07T00:01:20;136.27;;;41.38;;
27491;SDS011;14927;51.210;6.838;2023-12-07T00:04:04;140.45;;;40.10;;
27491;SDS011;14927;51.210;6.838;2023-12-07T00:06:49;102.93;;;32.13;;
27491;SDS011;14927;51.210;6.838;2023-12-07T00:09:34;90.30;;;31.65;;
27491;SDS011;14927;51.210;6.838;2023-12-07T00:12:18;109.97;;;32.67;;
27491;SDS011;14927;51.210;6.838;2023-12-07T00:15:03;91.03;;;30.75;;
27491;SDS011;14927;51.210;6.838;2023-12-07T00:17:48;92.53;;;29.67;;
27491;SDS011;14927;51.210;6.838;2023-12-07T00:20:33;96.70;;;34.10;;
27491;SDS011;14927;51.210;6.838;2023-12-07T00:23:18;116.15;;;36.78;;
27491;SDS011;14927;51.210;6.838;2023-12-07T00:26:03;92.97;;;33.58;;
27491;SDS011;14927;51.210;6.838;2023-12-07T00:28:48;99.18;;;33.65;;
27491;SDS011;14927;51.210;6.838;2023-12-07T00:31:33;85.40;;;29.80;;
27491;SDS011;14927;51.210;6.838;2023-12-07T00:34:17;62.80;;;24.77;;
27491;SDS011;14927;51.210;6.838;2023-12-07T00:37:02;69.93;;;25.98;;
27491;SDS011;14927;51.210;6.838;2023-12-07T00:39:47;63.95;;;25.42;;
27491;SDS011;14927;51.210;6.838;2023-12-07T00:42:31;64.15;;;24.38;;
27491;SDS011;14927;51.210;6.838;2023-12-07T00:45:16;56.17;;;24.17;;
27491;SDS011;14927;51.210;6.838;2023-12-07T00:48:01;56.88;;;23.48;;
27491;SDS011;14927;51.210;6.838;2023-12-07T00:50:45;44.95;;;21.65;;
27491;SDS011;14927;51.210;6.838;2023-12-07T00:53:30;40.83;;;20.27;;
27491;SDS011;14927;51.210;6.838;2023-12-07T00:56:16;31.63;;;17.30;;
27491;SDS011;14927;51.210;6.838;2023-12-07T00:59:03;30.92;;;16.83;;
27491;SDS011;14927;51.210;6.838;2023-12-07T01:01:47;26.67;;;16.13;;
27491;SDS011;14927;51.210;6.838;2023-12-07T01:04:37;27.52;;;15.70;;
27491;SDS011;14927;51.210;6.838;2023-12-07T01:07:21;24.52;;;15.95;;
27491;SDS011;14927;51.210;6.838;2023-12-07T01:10:06;26.52;;;15.43;;
27491;SDS011;14927;51.210;6.838;2023-12-07T01:12:51;25.08;;;15.68;;
27491;SDS011;14927;51.210;6.838;2023-12-07T01:15:36;27.90;;;15.45;;
27491;SDS011;14927;51.210;6.838;2023-12-07T01:18:21;27.05;;;16.15;;
27491;SDS011;14927;51.210;6.838;2023-12-07T01:21:06;28.77;;;16.08;;
27491;SDS011;14927;51.210;6.838;2023-12-07T01:23:51;21.20;;;14.98;;
27491;SDS011;14927;51.210;6.838;2023-12-07T01:26:36;24.52;;;15.57;;
27491;SDS011;14927;51.210;6.838;2023-12-07T01:29:20;25.25;;;15.00;;
27491;SDS011;14927;51.210;6.838;2023-12-07T01:32:05;23.75;;;15.30;;
27491;SDS011;14927;51.210;6.838;2023-12-07T01:34:50;38.33;;;18.75;;
27491;SDS011;14927;51.210;6.838;2023-12-07T01:37:34;32.72;;;16.95;;
27491;SDS011;14927;51.210;6.838;2023-12-07T01:40:25;27.35;;;15.80;;
27491;SDS011;14927;51.210;6.838;2023-12-07T01:43:22;22.75;;;14.18;;
27491;SDS011;14927;51.210;6.838;2023-12-07T01:46:07;23.67;;;14.73;;
27491;SDS011;14927;51.210;6.838;2023-12-07T01:48:51;26.92;;;15.15;;
27491;SDS011;14927;51.210;6.838;2023-12-07T01:51:36;24.63;;;16.08;;
27491;SDS011;14927;51.210;6.838;2023-12-07T01:54:24;23.17;;;15.07;;
27491;SDS011;14927;51.210;6.838;2023-12-07T01:57:08;24.35;;;15.48;;
27491;SDS011;14927;51.210;6.838;2023-12-07T01:59:53;28.75;;;16.55;;
27491;SDS011;14927;51.210;6.838;2023-12-07T02:02:38;29.35;;;16.85;;
27491;SDS011;14927;51.210;6.838;2023-12-07T02:05:23;26.60;;;17.05;;
27491;SDS011;14927;51.210;6.838;2023-12-07T02:08:09;31.55;;;16.95;;
27491;SDS011;14927;51.210;6.838;2023-12-07T02:10:54;26.92;;;16.85;;
27491;SDS011;14927;51.210;6.838;2023-12-07T02:13:38;30.20;;;17.05;;
27491;SDS011;14927;51.210;6.838;2023-12-07T02:16:35;27.45;;;16.50;;
27491;SDS011;14927;51.210;6.838;2023-12-07T02:19:44;29.40;;;16.90;;
27491;SDS011;14927;51.210;6.838;2023-12-07T02:22:37;25.55;;;16.17;;
27491;SDS011;14927;51.210;6.838;2023-12-07T02:25:36;23.58;;;15.45;;
27491;SDS011;14927;51.210;6.838;2023-12-07T02:28:41;24.95;;;16.63;;
27491;SDS011;14927;51.210;6.838;2023-12-07T02:31:26;25.80;;;16.13;;
27491;SDS011;14927;51.210;6.838;2023-12-07T02:34:12;27.98;;;17.45;;
27491;SDS011;14927;51.210;6.838;2023-12-07T02:36:56;27.73;;;16.75;;
27491;SDS011;14927;51.210;6.838;2023-12-07T02:39:44;27.58;;;16.83;;
27491;SDS011;14927;51.210;6.838;2023-12-07T02:42:29;33.92;;;18.15;;
27491;SDS011;14927;51.210;6.838;2023-12-07T02:45:17;32.63;;;18.45;;
27491;SDS011;14927;51.210;6.838;2023-12-07T02:48:01;34.83;;;18.17;;
27491;SDS011;14927;51.210;6.838;2023-12-07T02:50:46;32.08;;;18.48;;
27491;SDS011;14927;51.210;6.838;2023-12-07T02:53:31;31.48;;;19.13;;
27491;SDS011;14927;51.210;6.838;2023-12-07T02:56:15;27.83;;;17.58;;
27491;SDS011;14927;51.210;6.838;2023-12-07T02:59:00;29.45;;;18.17;;
27491;SDS011;14927;51.210;6.838;2023-12-07T03:01:45;30.88;;;18.02;;
27491;SDS011;14927;51.210;6.838;2023-12-07T03:04:29;26.27;;;17.65;;
27491;SDS011;14927;51.210;6.838;2023-12-07T03:07:14;26.85;;;17.30;;
27491;SDS011;14927;51.210;6.838;2023-12-07T03:09:58;25.17;;;17.63;;
27491;SDS011;14927;51.210;6.838;2023-12-07T03:12:43;27.15;;;18.45;;
27491;SDS011;14927;51.210;6.838;2023-12-07T03:15:28;29.08;;;18.17;;
27491;SDS011;14927;51.210;6.838;2023-12-07T03:18:12;29.23;;;18.10;;
27491;SDS011;14927;51.210;6.838;2023-12-07T03:20:57;26.13;;;18.42;;
27491;SDS011;14927;51.210;6.838;2023-12-07T03:23:41;27.02;;;18.30;;
27491;SDS011;14927;51.210;6.838;2023-12-07T03:26:26;29.17;;;19.25;;
27491;SDS011;14927;51.210;6.838;2023-12-07T03:29:11;26.67;;;17.85;;
27491;SDS011;14927;51.210;6.838;2023-12-07T03:31:55;29.35;;;18.88;;
27491;SDS011;14927;51.210;6.838;2023-12-07T03:34:40;33.72;;;18.90;;
27491;SDS011;14927;51.210;6.838;2023-12-07T03:37:24;30.20;;;18.92;;
27491;SDS011;14927;51.210;6.838;2023-12-07T03:40:09;26.92;;;18.27;;
27491;SDS011;14927;51.210;6.838;2023-12-07T03:42:54;31.20;;;19.65;;
27491;SDS011;14927;51.210;6.838;2023-12-07T03:45:41;29.08;;;20.02;;
27491;SDS011;14927;51.210;6.838;2023-12-07T03:48:26;28.95;;;19.50;;
27491;SDS011;14927;51.210;6.838;2023-12-07T03:51:12;31.33;;;20.13;;
27491;SDS011;14927;51.210;6.838;2023-12-07T03:54:00;28.80;;;19.60;;
27491;SDS011;14927;51.210;6.838;2023-12-07T03:56:44;29.05;;;19.88;;
27491;SDS011;14927;51.210;6.838;2023-12-07T03:59:29;33.65;;;20.98;;
27491;SDS011;14927;51.210;6.838;2023-12-07T04:02:14;27.92;;;19.55;;
27491;SDS011;14927;51.210;6.838;2023-12-07T04:04:58;29.35;;;18.73;;
27491;SDS011;14927;51.210;6.838;2023-12-07T04:07:46;29.52;;;20.40;;
27491;SDS011;14927;51.210;6.838;2023-12-07T04:10:31;27.33;;;18.50;;
27491;SDS011;14927;51.210;6.838;2023-12-07T04:13:16;30.73;;;19.65;;
27491;SDS011;14927;51.210;6.838;2023-12-07T04:16:01;35.20;;;19.20;;
27491;SDS011;14927;51.210;6.838;2023-12-07T04:18:46;31.63;;;19.70;;
27491;SDS011;14927;51.210;6.838;2023-12-07T04:21:31;30.23;;;19.92;;
27491;SDS011;14927;51.210;6.838;2023-12-07T04:24:16;28.35;;;19.27;;
27491;SDS011;14927;51.210;6.838;2023-12-07T04:27:01;31.67;;;19.95;;
27491;SDS011;14927;51.210;6.838;2023-12-07T04:29:45;33.28;;;19.95;;
27491;SDS011;14927;51.210;6.838;2023-12-07T04:32:30;30.98;;;19.98;;
27491;SDS011;14927;51.210;6.838;2023-12-07T04:35:15;32.40;;;19.80;;
27491;SDS011;14927;51.210;6.838;2023-12-07T04:37:59;30.35;;;19.42;;
27491;SDS011;14927;51.210;6.838;2023-12-07T04:40:44;30.52;;;18.75;;
27491;SDS011;14927;51.210;6.838;2023-12-07T04:43:28;28.95;;;19.88;;
27491;SDS011;14927;51.210;6.838;2023-12-07T04:46:13;26.45;;;18.63;;
27491;SDS011;14927;51.210;6.838;2023-12-07T04:48:58;30.02;;;19.15;;
27491;SDS011;14927;51.210;6.838;2023-12-07T04:51:42;30.80;;;19.08;;
27491;SDS011;14927;51.210;6.838;2023-12-07T04:54:33;31.15;;;19.80;;
27491;SDS011;14927;51.210;6.838;2023-12-07T04:57:18;27.88;;;19.85;;
27491;SDS011;14927;51.210;6.838;2023-12-07T05:00:02;30.52;;;20.08;;
27491;SDS011;14927;51.210;6.838;2023-12-07T05:05:37;27.10;;;18.48;;
27491;SDS011;14927;51.210;6.838;2023-12-07T05:08:24;30.27;;;18.95;;
27491;SDS011;14927;51.210;6.838;2023-12-07T05:11:08;34.90;;;21.05;;
27491;SDS011;14927;51.210;6.838;2023-12-07T05:13:53;31.42;;;19.35;;
27491;SDS011;14927;51.210;6.838;2023-12-07T05:16:38;35.55;;;20.25;;
27491;SDS011;14927;51.210;6.838;2023-12-07T05:19:23;27.65;;;19.65;;
27491;SDS011;14927;51.210;6.838;2023-12-07T05:22:11;31.83;;;19.35;;
27491;SDS011;14927;51.210;6.838;2023-12-07T05:24:57;32.35;;;19.67;;
27491;SDS011;14927;51.210;6.838;2023-12-07T05:27:42;32.38;;;20.08;;
27491;SDS011;14927;51.210;6.838;2023-12-07T05:30:27;28.50;;;19.85;;
27491;SDS011;14927;51.210;6.838;2023-12-07T05:33:12;32.28;;;20.33;;
27491;SDS011;14927;51.210;6.838;2023-12-07T05:35:57;31.92;;;20.63;;
27491;SDS011;14927;51.210;6.838;2023-12-07T05:38:42;37.92;;;20.25;;
27491;SDS011;14927;51.210;6.838;2023-12-07T05:41:27;28.73;;;19.73;;
27491;SDS011;14927;51.210;6.838;2023-12-07T05:44:12;32.13;;;20.02;;
27491;SDS011;14927;51.210;6.838;2023-12-07T05:46:56;31.38;;;20.63;;
27491;SDS011;14927;51.210;6.838;2023-12-07T05:49:41;32.58;;;20.10;;
27491;SDS011;14927;51.210;6.838;2023-12-07T05:52:25;27.70;;;19.10;;
27491;SDS011;14927;51.210;6.838;2023-12-07T05:55:10;30.10;;;19.23;;
27491;SDS011;14927;51.210;6.838;2023-12-07T05:57:58;32.78;;;20.40;;
27491;SDS011;14927;51.210;6.838;2023-12-07T06:00:43;33.40;;;20.77;;
27491;SDS011;14927;51.210;6.838;2023-12-07T06:03:30;32.00;;;20.65;;
27491;SDS011;14927;51.210;6.838;2023-12-07T06:06:16;31.33;;;20.13;;
27491;SDS011;14927;51.210;6.838;2023-12-07T06:09:00;33.65;;;19.95;;
27491;SDS011;14927;51.210;6.838;2023-12-07T06:11:48;33.22;;;20.00;;
27491;SDS011;14927;51.210;6.838;2023-12-07T06:14:33;31.77;;;19.45;;
27491;SDS011;14927;51.210;6.838;2023-12-07T06:17:19;34.22;;;19.25;;
27491;SDS011;14927;51.210;6.838;2023-12-07T06:20:05;31.60;;;19.33;;
27491;SDS011;14927;51.210;6.838;2023-12-07T06:22:50;28.63;;;18.70;;
27491;SDS011;14927;51.210;6.838;2023-12-07T06:25:34;28.90;;;18.45;;
27491;SDS011;14927;51.210;6.838;2023-12-07T06:28:19;29.45;;;19.58;;
27491;SDS011;14927;51.210;6.838;2023-12-07T06:31:07;31.02;;;20.05;;
27491;SDS011;14927;51.210;6.838;2023-12-07T06:33:52;28.98;;;17.95;;
27491;SDS011;14927;51.210;6.838;2023-12-07T06:36:37;34.40;;;19.67;;
27491;SDS011;14927;51.210;6.838;2023-12-07T06:39:21;26.67;;;17.55;;
27491;SDS011;14927;51.210;6.838;2023-12-07T06:42:06;28.00;;;17.05;;
27491;SDS011;14927;51.210;6.838;2023-12-07T06:44:51;24.23;;;15.32;;
27491;SDS011;14927;51.210;6.838;2023-12-07T06:47:39;25.65;;;16.58;;
27491;SDS011;14927;51.210;6.838;2023-12-07T06:50:26;24.80;;;16.35;;
27491;SDS011;14927;51.210;6.838;2023-12-07T06:53:10;24.45;;;15.45;;
27491;SDS011;14927;51.210;6.838;2023-12-07T06:55:55;27.73;;;15.75;;
27491;SDS011;14927;51.210;6.838;2023-12-07T06:58:40;23.23;;;14.90;;
27491;SDS011;14927;51.210;6.838;2023-12-07T07:01:24;23.60;;;15.00;;
27491;SDS011;14927;51.210;6.838;2023-12-07T07:04:09;24.33;;;16.20;;
27491;SDS011;14927;51.210;6.838;2023-12-07T07:06:54;24.63;;;15.25;;
27491;SDS011;14927;51.210;6.838;2023-12-07T07:09:39;24.02;;;15.35;;
27491;SDS011;14927;51.210;6.838;2023-12-07T07:12:24;23.15;;;15.13;;
27491;SDS011;14927;51.210;6.838;2023-12-07T07:15:08;22.75;;;14.90;;
27491;SDS011;14927;51.210;6.838;2023-12-07T07:17:53;22.30;;;14.60;;
27491;SDS011;14927;51.210;6.838;2023-12-07T07:20:38;22.05;;;14.55;;
27491;SDS011;14927;51.210;6.838;2023-12-07T07:23:22;23.33;;;14.95;;
27491;SDS011;14927;51.210;6.838;2023-12-07T07:26:07;21.63;;;14.35;;
27491;SDS011;14927;51.210;6.838;2023-12-07T07:28:52;22.60;;;13.27;;
27491;SDS011;14927;51.210;6.838;2023-12-07T07:31:37;23.70;;;14.30;;
27491;SDS011;14927;51.210;6.838;2023-12-07T07:34:22;23.13;;;13.98;;
27491;SDS011;14927;51.210;6.838;2023-12-07T07:37:06;21.48;;;13.63;;
27491;SDS011;14927;51.210;6.838;2023-12-07T07:39:51;19.90;;;13.48;;
27491;SDS011;14927;51.210;6.838;2023-12-07T07:42:35;22.42;;;13.93;;
27491;SDS011;14927;51.210;6.838;2023-12-07T07:45:21;20.90;;;13.00;;
27491;SDS011;14927;51.210;6.838;2023-12-07T07:48:05;21.30;;;12.45;;
27491;SDS011;14927;51.210;6.838;2023-12-07T07:50:50;20.02;;;13.50;;
27491;SDS011;14927;51.210;6.838;2023-12-07T07:53:35;24.75;;;12.50;;
27491;SDS011;14927;51.210;6.838;2023-12-07T07:56:19;18.42;;;12.88;;
27491;SDS011;14927;51.210;6.838;2023-12-07T07:59:04;17.50;;;12.98;;
27491;SDS011;14927;51.210;6.838;2023-12-07T08:01:48;20.85;;;13.23;;
27491;SDS011;14927;51.210;6.838;2023-12-07T08:04:33;21.92;;;12.40;;
27491;SDS011;14927;51.210;6.838;2023-12-07T08:07:18;19.73;;;12.27;;
27491;SDS011;14927;51.210;6.838;2023-12-07T08:10:02;17.38;;;12.80;;
27491;SDS011;14927;51.210;6.838;2023-12-07T08:12:48;18.00;;;11.88;;
27491;SDS011;14927;51.210;6.838;2023-12-07T08:15:33;21.05;;;12.50;;
27491;SDS011;14927;51.210;6.838;2023-12-07T08:18:18;22.67;;;12.23;;
27491;SDS011;14927;51.210;6.838;2023-12-07T08:21:03;18.98;;;12.25;;
27491;SDS011;14927;51.210;6.838;2023-12-07T08:23:48;25.83;;;13.75;;
27491;SDS011;14927;51.210;6.838;2023-12-07T08:26:32;22.25;;;13.82;;
27491;SDS011;14927;51.210;6.838;2023-12-07T08:29:17;21.75;;;12.60;;
27491;SDS011;14927;51.210;6.838;2023-12-07T08:32:02;23.75;;;12.57;;
27491;SDS011;14927;51.210;6.838;2023-12-07T08:34:46;22.25;;;13.43;;
27491;SDS011;14927;51.210;6.838;2023-12-07T08:37:31;23.80;;;12.77;;
27491;SDS011;14927;51.210;6.838;2023-12-07T08:40:16;18.85;;;13.10;;
27491;SDS011;14927;51.210;6.838;2023-12-07T08:43:01;25.65;;;12.73;;
27491;SDS011;14927;51.210;6.838;2023-12-07T08:45:46;18.20;;;12.50;;
27491;SDS011;14927;51.210;6.838;2023-12-07T08:48:31;17.17;;;12.70;;
27491;SDS011;14927;51.210;6.838;2023-12-07T08:51:15;19.08;;;12.85;;
27491;SDS011;14927;51.210;6.838;2023-12-07T08:54:00;18.83;;;12.10;;
27491;SDS011;14927;51.210;6.838;2023-12-07T08:56:44;20.05;;;12.77;;
27491;SDS011;14927;51.210;6.838;2023-12-07T08:59:29;19.80;;;12.55;;
27491;SDS011;14927;51.210;6.838;2023-12-07T09:02:14;22.55;;;13.35;;
27491;SDS011;14927;51.210;6.838;2023-12-07T09:04:59;22.50;;;12.82;;
27491;SDS011;14927;51.210;6.838;2023-12-07T09:07:44;17.63;;;12.75;;
27491;SDS011;14927;51.210;6.838;2023-12-07T09:10:28;23.85;;;13.90;;
27491;SDS011;14927;51.210;6.838;2023-12-07T09:13:13;18.35;;;13.23;;
27491;SDS011;14927;51.210;6.838;2023-12-07T09:15:58;21.63;;;13.85;;
27491;SDS011;14927;51.210;6.838;2023-12-07T09:18:42;18.65;;;13.00;;
27491;SDS011;14927;51.210;6.838;2023-12-07T09:21:28;22.63;;;13.65;;
27491;SDS011;14927;51.210;6.838;2023-12-07T09:24:18;21.38;;;13.75;;
27491;SDS011;14927;51.210;6.838;2023-12-07T09:27:06;24.90;;;13.07;;
27491;SDS011;14927;51.210;6.838;2023-12-07T09:29:50;24.02;;;13.25;;
27491;SDS011;14927;51.210;6.838;2023-12-07T09:32:35;19.95;;;13.45;;
27491;SDS011;14927;51.210;6.838;2023-12-07T09:35:26;21.33;;;14.05;;
27491;SDS011;14927;51.210;6.838;2023-12-07T09:38:10;20.83;;;14.00;;
27491;SDS011;14927;51.210;6.838;2023-12-07T09:40:57;18.88;;;12.90;;
27491;SDS011;14927;51.210;6.838;2023-12-07T09:43:52;21.45;;;14.15;;
27491;SDS011;14927;51.210;6.838;2023-12-07T09:46:37;22.65;;;14.05;;
27491;SDS011;14927;51.210;6.838;2023-12-07T09:49:24;20.50;;;13.50;;
27491;SDS011;14927;51.210;6.838;2023-12-07T09:52:11;20.17;;;14.25;;
27491;SDS011;14927;51.210;6.838;2023-12-07T09:54:57;20.98;;;14.23;;
27491;SDS011;14927;51.210;6.838;2023-12-07T09:57:43;19.20;;;13.45;;
27491;SDS011;14927;51.210;6.838;2023-12-07T10:00:27;21.38;;;14.35;;
27491;SDS011;14927;51.210;6.838;2023-12-07T10:03:22;21.67;;;13.98;;
27491;SDS011;14927;51.210;6.838;2023-12-07T10:06:07;21.98;;;13.80;;
27491;SDS011;14927;51.210;6.838;2023-12-07T10:08:53;23.85;;;14.65;;
27491;SDS011;14927;51.210;6.838;2023-12-07T10:11:48;20.05;;;14.40;;
27491;SDS011;14927;51.210;6.838;2023-12-07T10:14:32;23.75;;;14.90;;
27491;SDS011;14927;51.210;6.838;2023-12-07T10:17:17;21.83;;;14.57;;
27491;SDS011;14927;51.210;6.838;2023-12-07T10:20:08;19.65;;;13.35;;
27491;SDS011;14927;51.210;6.838;2023-12-07T10:25:53;22.73;;;13.45;;
27491;SDS011;14927;51.210;6.838;2023-12-07T10:28:39;19.85;;;13.10;;
27491;SDS011;14927;51.210;6.838;2023-12-07T10:31:23;18.92;;;13.38;;
27491;SDS011;14927;51.210;6.838;2023-12-07T10:34:09;24.35;;;14.15;;
27491;SDS011;14927;51.210;6.838;2023-12-07T10:36:54;24.25;;;14.43;;
27491;SDS011;14927;51.210;6.838;2023-12-07T10:39:41;20.52;;;13.93;;
27491;SDS011;14927;51.210;6.838;2023-12-07T10:42:26;24.17;;;14.10;;
27491;SDS011;14927;51.210;6.838;2023-12-07T10:45:17;20.85;;;14.23;;
27491;SDS011;14927;51.210;6.838;2023-12-07T10:48:07;24.27;;;13.43;;
27491;SDS011;14927;51.210;6.838;2023-12-07T10:50:53;18.27;;;13.77;;
27491;SDS011;14927;51.210;6.838;2023-12-07T10:53:41;20.58;;;13.75;;
27491;SDS011;14927;51.210;6.838;2023-12-07T10:56:28;20.80;;;13.88;;
27491;SDS011;14927;51.210;6.838;2023-12-07T10:59:21;19.95;;;13.45;;
27491;SDS011;14927;51.210;6.838;2023-12-07T11:02:08;18.35;;;12.93;;
27491;SDS011;14927;51.210;6.838;2023-12-07T11:04:57;19.20;;;12.85;;
27491;SDS011;14927;51.210;6.838;2023-12-07T11:11:04;20.40;;;12.98;;
27491;SDS011;14927;51.210;6.838;2023-12-07T11:14:15;21.48;;;13.60;;
27491;SDS011;14927;51.210;6.838;2023-12-07T11:17:01;19.83;;;12.80;;
27491;SDS011;14927;51.210;6.838;2023-12-07T11:19:47;23.42;;;12.77;;
27491;SDS011;14927;51.210;6.838;2023-12-07T11:22:32;18.35;;;12.23;;
27491;SDS011;14927;51.210;6.838;2023-12-07T11:25:16;19.00;;;11.98;;
27491;SDS011;14927;51.210;6.838;2023-12-07T11:28:02;19.83;;;12.63;;
27491;SDS011;14927;51.210;6.838;2023-12-07T11:30:51;19.27;;;12.68;;
27491;SDS011;14927;51.210;6.838;2023-12-07T11:33:37;20.20;;;12.23;;
27491;SDS011;14927;51.210;6.838;2023-12-07T11:36:23;16.92;;;11.50;;
27491;SDS011;14927;51.210;6.838;2023-12-07T11:41:55;15.38;;;11.02;;
27491;SDS011;14927;51.210;6.838;2023-12-07T11:44:50;17.95;;;11.73;;
27491;SDS011;14927;51.210;6.838;2023-12-07T11:47:38;18.40;;;11.35;;
27491;SDS011;14927;51.210;6.838;2023-12-07T11:50:22;19.55;;;12.25;;
27491;SDS011;14927;51.210;6.838;2023-12-07T11:53:07;17.35;;;11.98;;
27491;SDS011;14927;51.210;6.838;2023-12-07T11:55:52;19.05;;;11.35;;
27491;SDS011;14927;51.210;6.838;2023-12-07T11:58:37;13.50;;;11.07;;
27491;SDS011;14927;51.210;6.838;2023-12-07T12:01:24;15.82;;;11.10;;
27491;SDS011;14927;51.210;6.838;2023-12-07T12:04:10;19.58;;;12.10;;
27491;SDS011;14927;51.210;6.838;2023-12-07T12:06:55;16.00;;;11.25;;
27491;SDS011;14927;51.210;6.838;2023-12-07T12:09:39;16.90;;;11.65;;
27491;SDS011;14927;51.210;6.838;2023-12-07T12:12:27;17.67;;;11.30;;
27491;SDS011;14927;51.210;6.838;2023-12-07T12:15:13;19.42;;;11.68;;
27491;SDS011;14927;51.210;6.838;2023-12-07T12:17:58;18.55;;;11.80;;
27491;SDS011;14927;51.210;6.838;2023-12-07T12:20:44;17.83;;;11.55;;
27491;SDS011;14927;51.210;6.838;2023-12-07T12:23:29;15.90;;;10.80;;
27491;SDS011;14927;51.210;6.838;2023-12-07T12:26:14;15.18;;;10.65;;
27491;SDS011;14927;51.210;6.838;2023-12-07T12:29:03;17.02;;;10.38;;
27491;SDS011;14927;51.210;6.838;2023-12-07T12:31:49;14.27;;;9.73;;
27491;SDS011;14927;51.210;6.838;2023-12-07T12:34:34;15.25;;;10.32;;
27491;SDS011;14927;51.210;6.838;2023-12-07T12:37:18;16.95;;;10.45;;
27491;SDS011;14927;51.210;6.838;2023-12-07T12:40:06;14.98;;;9.80;;
27491;SDS011;14927;51.210;6.838;2023-12-07T12:42:52;13.18;;;9.38;;
27491;SDS011;14927;51.210;6.838;2023-12-07T12:45:36;14.85;;;10.25;;
27491;SDS011;14927;51.210;6.838;2023-12-07T12:48:21;12.57;;;9.27;;
27491;SDS011;14927;51.210;6.838;2023-12-07T12:51:10;20.70;;;9.90;;
27491;SDS011;14927;51.210;6.838;2023-12-07T12:53:58;13.25;;;9.65;;
27491;SDS011;14927;51.210;6.838;2023-12-07T12:56:43;17.45;;;9.25;;
27491;SDS011;14927;51.210;6.838;2023-12-07T12:59:29;12.20;;;9.15;;
27491;SDS011;14927;51.210;6.838;2023-12-07T13:02:13;15.75;;;9.05;;
27491;SDS011;14927;51.210;6.838;2023-12-07T13:04:58;12.98;;;8.73;;
27491;SDS011;14927;51.210;6.838;2023-12-07T13:07:46;11.02;;;8.27;;
27491;SDS011;14927;51.210;6.838;2023-12-07T13:13:17;11.45;;;8.13;;
27491;SDS011;14927;51.210;6.838;2023-12-07T13:16:03;16.52;;;8.98;;
27491;SDS011;14927;51.210;6.838;2023-12-07T13:18:48;15.75;;;8.48;;
27491;SDS011;14927;51.210;6.838;2023-12-07T13:21:32;14.55;;;8.50;;
27491;SDS011;14927;51.210;6.838;2023-12-07T13:24:17;15.77;;;8.90;;
27491;SDS011;14927;51.210;6.838;2023-12-07T13:27:02;15.15;;;8.63;;
27491;SDS011;14927;51.210;6.838;2023-12-07T13:29:46;12.38;;;8.50;;
27491;SDS011;14927;51.210;6.838;2023-12-07T13:32:31;16.30;;;8.07;;
27491;SDS011;14927;51.210;6.838;2023-12-07T13:35:17;14.70;;;8.88;;
27491;SDS011;14927;51.210;6.838;2023-12-07T13:38:02;13.57;;;7.90;;
27491;SDS011;14927;51.210;6.838;2023-12-07T13:40:46;14.77;;;8.57;;
27491;SDS011;14927;51.210;6.838;2023-12-07T13:43:32;11.63;;;8.27;;
27491;SDS011;14927;51.210;6.838;2023-12-07T13:46:18;13.80;;;7.82;;
27491;SDS011;14927;51.210;6.838;2023-12-07T13:49:03;10.45;;;7.15;;
27491;SDS011;14927;51.210;6.838;2023-12-07T13:51:47;11.30;;;7.47;;
27491;SDS011;14927;51.210;6.838;2023-12-07T13:54:32;12.18;;;7.15;;
27491;SDS011;14927;51.210;6.838;2023-12-07T13:57:16;13.10;;;7.93;;
27491;SDS011;14927;51.210;6.838;2023-12-07T14:03:42;10.77;;;7.30;;
27491;SDS011;14927;51.210;6.838;2023-12-07T14:06:26;13.43;;;7.05;;
27491;SDS011;14927;51.210;6.838;2023-12-07T14:09:11;14.73;;;7.15;;
27491;SDS011;14927;51.210;6.838;2023-12-07T14:12:00;11.50;;;6.75;;
27491;SDS011;14927;51.210;6.838;2023-12-07T14:14:46;11.93;;;6.50;;
27491;SDS011;14927;51.210;6.838;2023-12-07T14:17:31;14.68;;;6.20;;
27491;SDS011;14927;51.210;6.838;2023-12-07T14:20:20;14.82;;;7.72;;
27491;SDS011;14927;51.210;6.838;2023-12-07T14:23:08;14.07;;;7.25;;
27491;SDS011;14927;51.210;6.838;2023-12-07T14:25:52;10.50;;;6.70;;
27491;SDS011;14927;51.210;6.838;2023-12-07T14:28:41;13.13;;;7.68;;
27491;SDS011;14927;51.210;6.838;2023-12-07T14:31:26;12.25;;;7.18;;
27491;SDS011;14927;51.210;6.838;2023-12-07T14:34:10;14.02;;;7.43;;
27491;SDS011;14927;51.210;6.838;2023-12-07T14:36:57;11.82;;;6.85;;
27491;SDS011;14927;51.210;6.838;2023-12-07T14:39:42;11.80;;;7.22;;
27491;SDS011;14927;51.210;6.838;2023-12-07T14:42:27;14.32;;;8.00;;
27491;SDS011;14927;51.210;6.838;2023-12-07T14:45:12;12.63;;;7.57;;
27491;SDS011;14927;51.210;6.838;2023-12-07T14:47:58;12.95;;;7.70;;
27491;SDS011;14927;51.210;6.838;2023-12-07T14:50:43;13.27;;;7.22;;
27491;SDS011;14927;51.210;6.838;2023-12-07T14:53:27;15.75;;;7.50;;
27491;SDS011;14927;51.210;6.838;2023-12-07T14:56:12;21.17;;;7.22;;
27491;SDS011;14927;51.210;6.838;2023-12-07T14:59:00;13.07;;;7.18;;
27491;SDS011;14927;51.210;6.838;2023-12-07T15:01:45;12.50;;;7.10;;
27491;SDS011;14927;51.210;6.838;2023-12-07T15:04:30;13.30;;;6.82;;
27491;SDS011;14927;51.210;6.838;2023-12-07T15:07:15;12.90;;;8.13;;
27491;SDS011;14927;51.210;6.838;2023-12-07T15:10:00;9.73;;;6.82;;
27491;SDS011;14927;51.210;6.838;2023-12-07T15:12:45;13.63;;;7.57;;
27491;SDS011;14927;51.210;6.838;2023-12-07T15:18:53;10.68;;;7.13;;
27491;SDS011;14927;51.210;6.838;2023-12-07T15:21:54;16.30;;;8.35;;
27491;SDS011;14927;51.210;6.838;2023-12-07T15:24:41;11.88;;;7.75;;
27491;SDS011;14927;51.210;6.838;2023-12-07T15:27:26;22.95;;;11.50;;
27491;SDS011;14927;51.210;6.838;2023-12-07T15:30:20;12.90;;;7.00;;
27491;SDS011;14927;51.210;6.838;2023-12-07T15:33:16;12.68;;;7.03;;
27491;SDS011;14927;51.210;6.838;2023-12-07T15:36:02;15.98;;;6.82;;
27491;SDS011;14927;51.210;6.838;2023-12-07T15:38:47;13.75;;;6.57;;
27491;SDS011;14927;51.210;6.838;2023-12-07T15:41:32;12.68;;;6.82;;
27491;SDS011;14927;51.210;6.838;2023-12-07T15:44:16;14.30;;;6.95;;
27491;SDS011;14927;51.210;6.838;2023-12-07T15:47:01;11.93;;;7.07;;
27491;SDS011;14927;51.210;6.838;2023-12-07T15:49:46;10.43;;;6.90;;
27491;SDS011;14927;51.210;6.838;2023-12-07T15:52:30;13.23;;;6.72;;
27491;SDS011;14927;51.210;6.838;2023-12-07T15:55:15;11.80;;;6.82;;
27491;SDS011;14927;51.210;6.838;2023-12-07T15:58:00;15.20;;;7.70;;
27491;SDS011;14927;51.210;6.838;2023-12-07T16:00:45;15.00;;;6.80;;
27491;SDS011;14927;51.210;6.838;2023-12-07T16:03:30;10.57;;;7.03;;
27491;SDS011;14927;51.210;6.838;2023-12-07T16:06:14;14.15;;;7.25;;
27491;SDS011;14927;51.210;6.838;2023-12-07T16:08:59;13.45;;;7.53;;
27491;SDS011;14927;51.210;6.838;2023-12-07T16:11:43;14.05;;;7.30;;
27491;SDS011;14927;51.210;6.838;2023-12-07T16:14:28;12.27;;;7.03;;
27491;SDS011;14927;51.210;6.838;2023-12-07T16:17:12;11.90;;;6.63;;
27491;SDS011;14927;51.210;6.838;2023-12-07T16:19:57;15.05;;;7.30;;
27491;SDS011;14927;51.210;6.838;2023-12-07T16:22:45;10.05;;;6.85;;
27491;SDS011;14927;51.210;6.838;2023-12-07T16:25:32;12.32;;;7.03;;
27491;SDS011;14927;51.210;6.838;2023-12-07T16:29:07;12.57;;;6.97;;
27491;SDS011;14927;51.210;6.838;2023-12-07T16:31:52;12.38;;;7.43;;
27491;SDS011;14927;51.210;6.838;2023-12-07T16:34:37;13.40;;;7.95;;